createdAt,value
2023-04-16T00:00:59.746Z,10.50
2023-04-16T00:01:59.795Z,10.53
2023-04-16T00:03:00.063Z,10.53
2023-04-16T00:04:00.095Z,10.56
2023-04-16T00:04:59.686Z,10.59
2023-04-16T00:05:59.669Z,10.59
2023-04-16T00:06:59.661Z,10.60
2023-04-16T00:07:59.647Z,10.63
2023-04-16T00:08:59.650Z,10.63
2023-04-16T00:09:59.619Z,10.65
2023-04-16T00:10:59.644Z,10.67
2023-04-16T00:11:59.604Z,10.68
2023-04-16T00:12:59.604Z,10.70
2023-04-16T00:13:59.601Z,10.71
2023-04-16T00:14:59.553Z,10.70
2023-04-16T00:15:59.565Z,10.71
2023-04-16T00:16:59.579Z,10.61
2023-04-16T00:17:59.603Z,10.71
2023-04-16T00:18:59.510Z,10.68
2023-04-16T00:19:59.480Z,10.70
2023-04-16T00:20:59.507Z,10.68
2023-04-16T00:21:59.458Z,10.70
2023-04-16T00:22:59.451Z,10.68
2023-04-16T00:23:59.436Z,10.72
2023-04-16T00:24:59.429Z,10.72
2023-04-16T00:25:59.438Z,10.74
2023-04-16T00:26:59.410Z,10.70
2023-04-16T00:27:59.411Z,10.72
2023-04-16T00:28:59.388Z,10.70
2023-04-16T00:29:59.393Z,10.60
2023-04-16T00:30:59.409Z,10.44
2023-04-16T00:31:59.340Z,10.57
2023-04-16T00:32:59.345Z,10.57
2023-04-16T00:33:59.358Z,10.61
2023-04-16T00:34:59.297Z,10.60
2023-04-16T00:35:59.297Z,10.63
2023-04-16T00:36:59.287Z,10.61
2023-04-16T00:37:59.292Z,10.64
2023-04-16T00:38:59.300Z,10.59
2023-04-16T00:39:59.298Z,10.56
2023-04-16T00:40:59.341Z,10.59
2023-04-16T00:41:59.394Z,10.59
2023-04-16T00:42:59.362Z,10.59
2023-04-16T00:43:59.376Z,10.57
2023-04-16T00:44:59.408Z,10.56
2023-04-16T00:45:59.460Z,10.57
2023-04-16T00:46:59.407Z,10.56
2023-04-16T00:48:00.547Z,10.57
2023-04-16T00:48:59.434Z,10.46
2023-04-16T00:49:59.424Z,10.50
2023-04-16T00:50:59.449Z,10.31
2023-04-16T00:51:59.420Z,10.37
2023-04-16T00:52:59.458Z,10.25
2023-04-16T00:53:59.496Z,10.36
2023-04-16T00:54:59.515Z,10.43
2023-04-16T00:55:59.503Z,10.47
2023-04-16T00:56:59.537Z,10.50
2023-04-16T00:57:59.517Z,10.51
2023-04-16T00:58:59.536Z,10.56
2023-04-16T00:59:59.521Z,10.57
2023-04-16T01:00:59.538Z,10.56
2023-04-16T01:01:59.701Z,10.60
2023-04-16T01:02:59.694Z,10.61
2023-04-16T01:03:59.713Z,10.61
2023-04-16T01:04:59.574Z,10.61
2023-04-16T01:05:59.579Z,10.60
2023-04-16T01:06:59.582Z,10.64
2023-04-16T01:07:59.575Z,10.65
2023-04-16T01:08:59.586Z,10.64
2023-04-16T01:09:59.598Z,10.64
2023-04-16T01:10:59.602Z,10.67
2023-04-16T01:11:59.635Z,10.64
2023-04-16T01:12:59.653Z,10.63
2023-04-16T01:13:59.684Z,10.56
2023-04-16T01:14:59.712Z,10.53
2023-04-16T01:15:59.782Z,10.42
2023-04-16T01:16:59.735Z,10.04
2023-04-16T01:17:59.876Z,9.89
2023-04-16T01:18:59.716Z,10.02
2023-04-16T01:19:59.759Z,10.13
2023-04-16T01:20:59.754Z,10.20
2023-04-16T01:21:59.795Z,10.28
2023-04-16T01:22:59.762Z,10.29
2023-04-16T01:23:59.772Z,10.33
2023-04-16T01:24:59.751Z,10.35
2023-04-16T01:25:59.769Z,10.36
2023-04-16T01:26:59.792Z,10.10
2023-04-16T01:27:59.792Z,9.92
2023-04-16T01:28:59.858Z,10.08
2023-04-16T01:29:59.907Z,10.13
2023-04-16T01:30:59.992Z,10.19
2023-04-16T01:32:00.036Z,10.29
2023-04-16T01:33:00.065Z,10.32
2023-04-16T01:34:00.036Z,10.36
2023-04-16T01:35:00.033Z,10.40
2023-04-16T01:36:00.065Z,10.43
2023-04-16T01:37:00.148Z,10.39
2023-04-16T01:38:00.151Z,10.43
2023-04-16T01:39:00.179Z,10.40
2023-04-16T01:40:00.201Z,10.44
2023-04-16T01:41:00.259Z,10.42
2023-04-16T01:42:00.285Z,10.42
2023-04-16T01:43:00.266Z,10.46
2023-04-16T01:44:00.290Z,10.46
2023-04-16T01:45:00.278Z,10.50
2023-04-16T01:46:00.296Z,10.47
2023-04-16T01:47:00.431Z,10.50
2023-04-16T01:48:00.336Z,10.50
2023-04-16T01:49:00.319Z,10.53
2023-04-16T01:50:00.358Z,10.54
2023-04-16T01:51:00.335Z,10.57
2023-04-16T01:52:00.332Z,10.60
2023-04-16T01:53:00.349Z,10.60
2023-04-16T01:54:00.354Z,10.61
2023-04-16T01:55:00.408Z,10.63
2023-04-16T01:56:00.393Z,10.63
2023-04-16T01:57:00.403Z,10.65
2023-04-16T01:58:00.387Z,10.63
2023-04-16T01:59:00.418Z,10.67
2023-04-16T02:00:00.418Z,10.71
2023-04-16T02:01:00.532Z,10.70
2023-04-16T02:02:00.580Z,10.70
2023-04-16T02:03:00.691Z,10.71
2023-04-16T02:04:00.650Z,10.71
2023-04-16T02:05:00.440Z,10.68
2023-04-16T02:06:00.477Z,10.70
2023-04-16T02:07:00.444Z,10.68
2023-04-16T02:08:00.472Z,10.68
2023-04-16T02:09:00.488Z,10.71
2023-04-16T02:10:00.511Z,10.70
2023-04-16T02:11:00.495Z,10.71
2023-04-16T02:12:00.516Z,10.71
2023-04-16T02:13:00.531Z,10.71
2023-04-16T02:14:00.572Z,10.72
2023-04-16T02:15:00.601Z,10.75
2023-04-16T02:16:00.720Z,10.72
2023-04-16T02:17:00.695Z,10.71
2023-04-16T02:18:00.814Z,10.72
2023-04-16T02:19:00.802Z,10.71
2023-04-16T02:20:00.909Z,10.74
2023-04-16T02:21:00.899Z,10.71
2023-04-16T02:22:00.965Z,10.60
2023-04-16T02:23:00.993Z,10.51
2023-04-16T02:24:01.020Z,10.50
2023-04-16T02:25:01.108Z,10.54
2023-04-16T02:26:01.121Z,10.59
2023-04-16T02:27:01.170Z,10.61
2023-04-16T02:28:01.216Z,10.63
2023-04-16T02:29:01.255Z,10.63
2023-04-16T02:30:01.387Z,10.67
2023-04-16T02:31:01.340Z,10.67
2023-04-16T02:32:01.396Z,10.68
2023-04-16T02:33:01.449Z,10.70
2023-04-16T02:34:01.373Z,10.72
2023-04-16T02:35:01.452Z,10.64
2023-04-16T02:36:01.498Z,10.67
2023-04-16T02:37:01.501Z,10.65
2023-04-16T02:38:01.617Z,10.70
2023-04-16T02:39:01.600Z,10.68
2023-04-16T02:40:01.725Z,10.71
2023-04-16T02:41:01.733Z,10.74
2023-04-16T02:42:01.724Z,10.72
2023-04-16T02:43:01.783Z,10.71
2023-04-16T02:44:01.857Z,10.70
2023-04-16T02:45:01.881Z,10.71
2023-04-16T02:46:02.052Z,10.75
2023-04-16T02:47:01.939Z,10.77
2023-04-16T02:48:02.138Z,10.77
2023-04-16T02:49:02.052Z,10.79
2023-04-16T02:50:02.081Z,10.79
2023-04-16T02:51:02.140Z,10.77
2023-04-16T02:52:02.229Z,10.81
2023-04-16T02:53:02.208Z,10.82
2023-04-16T02:54:02.283Z,10.82
2023-04-16T02:55:02.298Z,10.82
2023-04-16T02:56:02.339Z,10.84
2023-04-16T02:57:02.396Z,10.84
2023-04-16T02:58:02.418Z,10.84
2023-04-16T02:59:02.474Z,10.85
2023-04-16T03:00:02.504Z,10.85
2023-04-16T03:01:02.601Z,10.87
2023-04-16T03:02:02.555Z,10.88
2023-04-16T03:03:02.646Z,10.88
2023-04-16T03:04:02.629Z,10.82
2023-04-16T03:05:02.636Z,10.82
2023-04-16T03:06:02.671Z,10.85
2023-04-16T03:07:02.960Z,10.85
2023-04-16T03:08:02.704Z,10.84
2023-04-16T03:09:02.714Z,10.85
2023-04-16T03:10:02.729Z,10.84
2023-04-16T03:11:02.731Z,10.82
2023-04-16T03:12:02.707Z,10.84
2023-04-16T03:13:02.743Z,10.84
2023-04-16T03:14:02.759Z,10.85
2023-04-16T03:15:02.834Z,10.84
2023-04-16T03:16:02.887Z,10.82
2023-04-16T03:17:02.803Z,10.84
2023-04-16T03:18:02.895Z,10.84
2023-04-16T03:19:02.927Z,10.85
2023-04-16T03:20:02.942Z,10.85
2023-04-16T03:21:02.969Z,10.87
2023-04-16T03:22:03.005Z,10.85
2023-04-16T03:23:03.032Z,10.82
2023-04-16T03:24:03.052Z,10.84
2023-04-16T03:25:03.070Z,10.87
2023-04-16T03:26:03.131Z,10.82
2023-04-16T03:27:03.117Z,10.82
2023-04-16T03:28:03.127Z,10.85
2023-04-16T03:29:03.159Z,10.87
2023-04-16T03:30:03.200Z,10.88
2023-04-16T03:31:03.271Z,10.85
2023-04-16T03:32:03.258Z,10.87
2023-04-16T03:33:03.275Z,10.87
2023-04-16T03:34:03.308Z,10.82
2023-04-16T03:35:03.334Z,10.87
2023-04-16T03:36:03.352Z,10.88
2023-04-16T03:37:03.377Z,10.88
2023-04-16T03:38:03.429Z,10.85
2023-04-16T03:39:03.431Z,10.25
2023-04-16T03:40:03.464Z,10.57
2023-04-16T03:41:03.476Z,10.61
2023-04-16T03:42:03.517Z,10.67
2023-04-16T03:43:03.651Z,10.65
2023-04-16T03:44:03.594Z,10.68
2023-04-16T03:45:03.651Z,10.70
2023-04-16T03:46:03.680Z,10.72
2023-04-16T03:47:03.693Z,10.74
2023-04-16T03:48:03.683Z,10.75
2023-04-16T03:49:03.682Z,10.78
2023-04-16T03:50:03.713Z,10.78
2023-04-16T03:51:03.729Z,10.82
2023-04-16T03:52:03.780Z,10.79
2023-04-16T03:53:03.798Z,10.82
2023-04-16T03:54:03.809Z,10.81
2023-04-16T03:55:03.808Z,10.81
2023-04-16T03:56:03.784Z,10.81
2023-04-16T03:57:03.811Z,10.81
2023-04-16T03:58:03.847Z,10.79
2023-04-16T03:59:04.429Z,10.81
2023-04-16T04:00:03.848Z,10.79
2023-04-16T04:01:03.856Z,10.81
2023-04-16T04:02:03.990Z,10.84
2023-04-16T04:03:04.277Z,10.77
2023-04-16T04:04:04.290Z,10.78
2023-04-16T04:05:04.055Z,10.77
2023-04-16T04:06:03.882Z,10.74
2023-04-16T04:07:03.909Z,10.74
2023-04-16T04:08:03.963Z,10.68
2023-04-16T04:09:04.053Z,10.63
2023-04-16T04:10:04.098Z,10.56
2023-04-16T04:11:04.137Z,10.43
2023-04-16T04:12:04.164Z,10.47
2023-04-16T04:13:04.170Z,10.49
2023-04-16T04:14:04.238Z,10.49
2023-04-16T04:15:04.208Z,10.44
2023-04-16T04:16:04.267Z,10.50
2023-04-16T04:17:04.249Z,10.50
2023-04-16T04:18:04.317Z,10.51
2023-04-16T04:19:04.295Z,10.49
2023-04-16T04:20:04.319Z,10.50
2023-04-16T04:21:04.333Z,10.50
2023-04-16T04:22:04.371Z,10.49
2023-04-16T04:23:04.432Z,10.50
2023-04-16T04:24:04.467Z,10.47
2023-04-16T04:25:04.519Z,10.43
2023-04-16T04:26:04.555Z,10.44
2023-04-16T04:27:04.536Z,10.47
2023-04-16T04:28:04.567Z,10.47
2023-04-16T04:29:04.581Z,10.49
2023-04-16T04:30:04.615Z,10.49
2023-04-16T04:31:04.642Z,10.42
2023-04-16T04:32:04.694Z,10.40
2023-04-16T04:33:04.768Z,10.42
2023-04-16T04:34:04.782Z,10.39
2023-04-16T04:35:04.826Z,10.39
2023-04-16T04:36:04.886Z,10.37
2023-04-16T04:37:04.929Z,10.37
2023-04-16T04:38:04.933Z,10.40
2023-04-16T04:39:04.962Z,10.42
2023-04-16T04:40:04.993Z,10.40
2023-04-16T04:41:05.037Z,10.42
2023-04-16T04:42:05.064Z,10.42
2023-04-16T04:43:05.108Z,10.43
2023-04-16T04:44:05.158Z,10.37
2023-04-16T04:45:05.221Z,10.36
2023-04-16T04:46:05.306Z,10.33
2023-04-16T04:47:05.296Z,10.32
2023-04-16T04:48:05.391Z,10.32
2023-04-16T04:49:05.386Z,10.32
2023-04-16T04:50:05.438Z,10.33
2023-04-16T04:51:05.585Z,10.32
2023-04-16T04:52:05.550Z,10.33
2023-04-16T04:53:05.583Z,10.36
2023-04-16T04:54:05.626Z,10.37
2023-04-16T04:55:05.658Z,10.40
2023-04-16T04:56:12.095Z,10.42
2023-04-16T04:57:05.699Z,10.44
2023-04-16T04:58:05.688Z,10.46
2023-04-16T04:59:05.707Z,10.40
2023-04-16T05:00:05.667Z,10.42
2023-04-16T05:01:05.721Z,10.46
2023-04-16T05:02:05.707Z,10.47
2023-04-16T05:03:05.687Z,10.28
2023-04-16T05:04:05.767Z,10.42
2023-04-16T05:05:05.654Z,10.43
2023-04-16T05:06:05.640Z,10.26
2023-04-16T05:07:05.621Z,10.32
2023-04-16T05:08:05.630Z,10.35
2023-04-16T05:09:05.623Z,10.31
2023-04-16T05:10:05.593Z,10.37
2023-04-16T05:11:05.590Z,10.43
2023-04-16T05:12:05.588Z,10.43
2023-04-16T05:13:06.402Z,10.51
2023-04-16T05:14:05.554Z,10.56
2023-04-16T05:15:05.537Z,10.60
2023-04-16T05:16:05.525Z,10.63
2023-04-16T05:17:05.535Z,10.68
2023-04-16T05:18:06.074Z,10.64
2023-04-16T05:19:05.482Z,10.71
2023-04-16T05:20:05.474Z,10.71
2023-04-16T05:21:05.475Z,10.74
2023-04-16T05:22:05.512Z,10.78
2023-04-16T05:23:05.445Z,10.79
2023-04-16T05:24:05.432Z,10.82
2023-04-16T05:25:05.434Z,10.84
2023-04-16T05:26:05.425Z,10.65
2023-04-16T05:27:05.462Z,10.67
2023-04-16T05:28:05.433Z,10.60
2023-04-16T05:29:05.450Z,10.53
2023-04-16T05:30:05.470Z,10.39
2023-04-16T05:31:05.568Z,10.23
2023-04-16T05:32:05.550Z,10.10
2023-04-16T05:33:05.620Z,10.06
2023-04-16T05:34:05.725Z,9.99
2023-04-16T05:35:05.776Z,9.94
2023-04-16T05:36:05.853Z,9.98
2023-04-16T05:37:05.915Z,9.95
2023-04-16T05:38:05.961Z,10.01
2023-04-16T05:39:05.995Z,10.02
2023-04-16T05:40:05.982Z,10.04
2023-04-16T05:41:06.000Z,10.06
2023-04-16T05:42:06.063Z,10.09
2023-04-16T05:43:06.129Z,10.16
2023-04-16T05:44:06.182Z,10.22
2023-04-16T05:45:06.227Z,10.25
2023-04-16T05:46:06.296Z,10.32
2023-04-16T05:47:06.307Z,10.37
2023-04-16T05:48:06.324Z,10.40
2023-04-16T05:49:06.348Z,10.44
2023-04-16T05:50:06.413Z,10.49
2023-04-16T05:51:06.434Z,10.42
2023-04-16T05:52:06.445Z,10.43
2023-04-16T05:53:06.471Z,10.22
2023-04-16T05:54:06.488Z,10.26
2023-04-16T05:55:06.540Z,10.36
2023-04-16T05:56:06.593Z,10.26
2023-04-16T05:57:06.653Z,10.25
2023-04-16T05:58:06.694Z,10.22
2023-04-16T05:59:06.820Z,10.20
2023-04-16T06:00:06.738Z,10.10
2023-04-16T06:01:06.825Z,9.98
2023-04-16T06:02:06.907Z,9.91
2023-04-16T06:03:07.331Z,9.85
2023-04-16T06:04:07.399Z,9.88
2023-04-16T06:05:07.206Z,9.82
2023-04-16T06:06:07.247Z,9.73
2023-04-16T06:07:07.275Z,9.84
2023-04-16T06:08:07.353Z,9.88
2023-04-16T06:09:07.607Z,9.94
2023-04-16T06:10:07.441Z,10.01
2023-04-16T06:11:07.504Z,10.12
2023-04-16T06:12:07.566Z,10.20
2023-04-16T06:13:07.588Z,10.28
2023-04-16T06:14:07.623Z,10.39
2023-04-16T06:15:07.631Z,10.49
2023-04-16T06:16:07.618Z,10.59
2023-04-16T06:17:07.612Z,10.65
2023-04-16T06:18:07.644Z,10.75
2023-04-16T06:19:07.874Z,10.85
2023-04-16T06:20:07.647Z,10.92
2023-04-16T06:21:07.702Z,11.04
2023-04-16T06:22:07.751Z,11.13
2023-04-16T06:23:07.758Z,11.13
2023-04-16T06:24:07.794Z,11.32
2023-04-16T06:25:07.803Z,11.33
2023-04-16T06:26:07.831Z,11.34
2023-04-16T06:27:07.847Z,11.51
2023-04-16T06:28:07.874Z,11.60
2023-04-16T06:29:08.175Z,11.63
2023-04-16T06:30:07.919Z,11.68
2023-04-16T06:31:08.003Z,11.61
2023-04-16T06:32:08.004Z,11.66
2023-04-16T06:33:08.952Z,11.71
2023-04-16T06:34:08.093Z,11.64
2023-04-16T06:35:08.105Z,11.73
2023-04-16T06:36:08.121Z,11.81
2023-04-16T06:37:10.503Z,11.88
2023-04-16T06:38:08.095Z,11.96
2023-04-16T06:39:08.257Z,12.05
2023-04-16T06:40:08.008Z,12.18
2023-04-16T06:41:07.970Z,12.21
2023-04-16T06:42:07.943Z,12.28
2023-04-16T06:43:07.952Z,12.37
2023-04-16T06:44:07.894Z,12.43
2023-04-16T06:45:07.851Z,12.35
2023-04-16T06:46:07.815Z,12.49
2023-04-16T06:47:07.861Z,12.56
2023-04-16T06:48:07.847Z,12.58
2023-04-16T06:49:07.836Z,12.66
2023-04-16T06:50:07.700Z,12.71
2023-04-16T06:51:07.674Z,12.77
2023-04-16T06:52:07.637Z,12.81
2023-04-16T06:53:07.618Z,12.83
2023-04-16T06:54:07.611Z,12.85
2023-04-16T06:55:07.593Z,12.68
2023-04-16T06:56:07.494Z,12.77
2023-04-16T06:57:07.476Z,12.84
2023-04-16T06:58:07.425Z,12.88
2023-04-16T06:59:07.609Z,12.91
2023-04-16T07:00:07.391Z,12.96
2023-04-16T07:01:07.405Z,13.02
2023-04-16T07:02:07.372Z,13.05
2023-04-16T07:03:07.552Z,12.87
2023-04-16T07:04:07.362Z,12.91
2023-04-16T07:05:07.322Z,12.87
2023-04-16T07:06:07.294Z,12.88
2023-04-16T07:07:07.315Z,12.98
2023-04-16T07:08:07.343Z,12.98
2023-04-16T07:09:07.423Z,13.04
2023-04-16T07:10:07.393Z,13.06
2023-04-16T07:11:07.448Z,13.05
2023-04-16T07:12:07.374Z,12.87
2023-04-16T07:13:07.331Z,12.84
2023-04-16T07:14:07.333Z,12.87
2023-04-16T07:15:07.352Z,12.87
2023-04-16T07:16:07.417Z,12.67
2023-04-16T07:17:07.410Z,12.68
2023-04-16T07:18:07.502Z,12.54
2023-04-16T07:19:07.691Z,12.54
2023-04-16T07:20:07.566Z,12.54
2023-04-16T07:21:07.620Z,12.53
2023-04-16T07:22:07.657Z,12.41
2023-04-16T07:23:07.687Z,12.47
2023-04-16T07:24:07.713Z,12.33
2023-04-16T07:25:07.725Z,12.44
2023-04-16T07:26:07.770Z,12.46
2023-04-16T07:27:07.747Z,12.53
2023-04-16T07:28:07.721Z,12.50
2023-04-16T07:29:07.858Z,12.47
2023-04-16T07:30:07.718Z,12.47
2023-04-16T07:31:07.737Z,12.44
2023-04-16T07:32:07.816Z,12.40
2023-04-16T07:33:07.823Z,12.43
2023-04-16T07:34:07.747Z,12.49
2023-04-16T07:35:07.723Z,12.54
2023-04-16T07:36:07.735Z,12.58
2023-04-16T07:37:07.700Z,12.53
2023-04-16T07:38:07.726Z,12.53
2023-04-16T07:39:08.003Z,12.63
2023-04-16T07:40:07.795Z,12.66
2023-04-16T07:41:07.802Z,12.77
2023-04-16T07:42:07.830Z,12.87
2023-04-16T07:43:07.821Z,12.77
2023-04-16T07:44:07.822Z,12.90
2023-04-16T07:45:07.929Z,12.98
2023-04-16T07:46:07.935Z,13.05
2023-04-16T07:47:07.902Z,12.80
2023-04-16T07:48:07.901Z,13.04
2023-04-16T07:49:08.098Z,13.11
2023-04-16T07:50:07.927Z,12.92
2023-04-16T07:51:07.939Z,13.05
2023-04-16T07:52:07.950Z,13.11
2023-04-16T07:53:08.039Z,13.21
2023-04-16T07:54:07.956Z,13.23
2023-04-16T07:55:07.945Z,13.29
2023-04-16T07:56:07.915Z,13.22
2023-04-16T07:57:07.891Z,13.39
2023-04-16T07:58:07.872Z,13.38
2023-04-16T07:59:20.900Z,13.51
2023-04-16T08:00:07.760Z,13.58
2023-04-16T08:01:07.695Z,13.67
2023-04-16T08:02:07.706Z,13.71
2023-04-16T08:03:07.891Z,13.47
2023-04-16T08:04:07.673Z,13.77
2023-04-16T08:05:07.529Z,13.88
2023-04-16T08:06:07.450Z,13.86
2023-04-16T08:07:07.386Z,13.98
2023-04-16T08:08:07.342Z,14.08
2023-04-16T08:09:07.432Z,14.18
2023-04-16T08:10:07.277Z,14.22
2023-04-16T08:11:07.196Z,14.23
2023-04-16T08:12:07.126Z,14.32
2023-04-16T08:13:07.090Z,14.37
2023-04-16T08:14:07.054Z,14.40
2023-04-16T08:15:06.981Z,14.44
2023-04-16T08:16:06.943Z,14.51
2023-04-16T08:17:06.847Z,14.60
2023-04-16T08:18:06.847Z,14.67
2023-04-16T08:19:06.737Z,14.74
2023-04-16T08:20:06.665Z,14.80
2023-04-16T08:21:06.607Z,14.77
2023-04-16T08:22:06.531Z,14.87
2023-04-16T08:23:06.471Z,14.90
2023-04-16T08:24:06.406Z,14.71
2023-04-16T08:25:06.343Z,14.78
2023-04-16T08:26:06.321Z,14.90
2023-04-16T08:27:17.749Z,15.02
2023-04-16T08:28:06.235Z,15.08
2023-04-16T08:29:06.154Z,15.11
2023-04-16T08:30:06.114Z,15.13
2023-04-16T08:31:06.052Z,15.13
2023-04-16T08:32:05.960Z,15.23
2023-04-16T08:33:05.998Z,15.18
2023-04-16T08:34:05.933Z,15.22
2023-04-16T08:35:05.769Z,15.28
2023-04-16T08:36:05.720Z,15.28
2023-04-16T08:37:05.707Z,15.35
2023-04-16T08:38:05.588Z,15.37
2023-04-16T08:39:05.524Z,15.11
2023-04-16T08:40:05.450Z,15.29
2023-04-16T08:41:05.396Z,15.35
2023-04-16T08:42:05.316Z,15.40
2023-04-16T08:43:05.228Z,15.51
2023-04-16T08:44:05.156Z,15.61
2023-04-16T08:45:05.076Z,15.67
2023-04-16T08:46:05.083Z,15.75
2023-04-16T08:47:05.012Z,15.67
2023-04-16T08:48:04.861Z,15.64
2023-04-16T08:49:04.756Z,15.78
2023-04-16T08:50:04.687Z,15.85
2023-04-16T08:51:04.634Z,15.83
2023-04-16T08:52:04.540Z,15.94
2023-04-16T08:53:04.465Z,15.92
2023-04-16T08:54:04.395Z,15.90
2023-04-16T08:55:04.319Z,15.87
2023-04-16T08:56:04.252Z,15.94
2023-04-16T08:57:04.183Z,16.00
2023-04-16T08:58:04.112Z,16.02
2023-04-16T08:59:04.051Z,15.90
2023-04-16T09:00:03.970Z,16.01
2023-04-16T09:01:03.954Z,15.97
2023-04-16T09:02:04.029Z,16.05
2023-04-16T09:03:03.779Z,15.92
2023-04-16T09:04:03.902Z,16.11
2023-04-16T09:05:03.593Z,16.19
2023-04-16T09:06:03.501Z,16.29
2023-04-16T09:07:03.442Z,16.36
2023-04-16T09:08:03.349Z,16.42
2023-04-16T09:09:03.284Z,16.47
2023-04-16T09:10:03.198Z,16.46
2023-04-16T09:11:03.130Z,16.37
2023-04-16T09:12:03.039Z,16.52
2023-04-16T09:13:02.962Z,16.62
2023-04-16T09:14:02.884Z,16.66
2023-04-16T09:15:02.871Z,16.68
2023-04-16T09:16:02.751Z,16.35
2023-04-16T09:17:02.626Z,16.70
2023-04-16T09:18:02.633Z,16.82
2023-04-16T09:19:02.468Z,16.90
2023-04-16T09:20:02.391Z,16.95
2023-04-16T09:21:02.309Z,16.84
2023-04-16T09:22:02.284Z,16.98
2023-04-16T09:23:02.253Z,17.00
2023-04-16T09:24:02.246Z,16.91
2023-04-16T09:25:02.185Z,17.07
2023-04-16T09:26:02.156Z,16.77
2023-04-16T09:27:02.095Z,16.74
2023-04-16T09:28:02.028Z,16.90
2023-04-16T09:29:01.959Z,16.98
2023-04-16T09:30:01.969Z,17.02
2023-04-16T09:31:01.844Z,17.09
2023-04-16T09:32:01.845Z,16.96
2023-04-16T09:33:01.798Z,16.80
2023-04-16T09:34:01.694Z,16.98
2023-04-16T09:35:01.610Z,16.68
2023-04-16T09:36:01.485Z,16.94
2023-04-16T09:37:01.425Z,17.02
2023-04-16T09:38:01.360Z,17.04
2023-04-16T09:39:01.285Z,17.12
2023-04-16T09:40:01.232Z,17.14
2023-04-16T09:41:01.155Z,16.96
2023-04-16T09:42:01.135Z,17.04
2023-04-16T09:43:01.095Z,17.18
2023-04-16T09:44:01.031Z,17.21
2023-04-16T09:45:04.075Z,17.19
2023-04-16T09:46:02.598Z,17.25
2023-04-16T09:47:00.983Z,17.25
2023-04-16T09:48:00.912Z,17.26
2023-04-16T09:49:00.802Z,17.25
2023-04-16T09:50:00.739Z,17.00
2023-04-16T09:51:00.632Z,16.71
2023-04-16T09:52:00.546Z,16.98
2023-04-16T09:53:00.446Z,17.14
2023-04-16T09:54:00.370Z,17.19
2023-04-16T09:55:00.288Z,17.07
2023-04-16T09:56:00.202Z,17.11
2023-04-16T09:57:00.134Z,17.02
2023-04-16T09:58:00.043Z,17.18
2023-04-16T09:58:59.932Z,17.05
2023-04-16T09:59:59.848Z,17.19
2023-04-16T10:00:59.815Z,17.09
2023-04-16T10:02:14.464Z,17.07
2023-04-16T10:02:59.660Z,17.08
2023-04-16T10:03:59.602Z,17.26
2023-04-16T10:04:59.397Z,17.29
2023-04-16T10:05:59.331Z,17.23
2023-04-16T10:06:59.239Z,17.35
2023-04-16T10:07:59.141Z,17.33
2023-04-16T10:08:59.053Z,17.37
2023-04-16T10:09:59.034Z,17.37
2023-04-16T10:10:58.869Z,17.15
2023-04-16T10:11:58.789Z,17.22
2023-04-16T10:12:58.701Z,17.35
2023-04-16T10:13:58.620Z,17.30
2023-04-16T10:14:58.594Z,17.35
2023-04-16T10:15:58.439Z,17.32
2023-04-16T10:16:58.360Z,17.42
2023-04-16T10:17:58.294Z,17.47
2023-04-16T10:18:58.152Z,17.43
2023-04-16T10:19:58.067Z,17.43
2023-04-16T10:20:57.966Z,17.37
2023-04-16T10:21:57.872Z,17.59
2023-04-16T10:22:57.754Z,17.57
2023-04-16T10:23:57.662Z,17.63
2023-04-16T10:24:57.561Z,17.57
2023-04-16T10:25:57.686Z,17.77
2023-04-16T10:26:57.366Z,17.90
2023-04-16T10:27:58.496Z,17.98
2023-04-16T10:28:57.161Z,18.05
2023-04-16T10:29:57.067Z,17.98
2023-04-16T10:30:56.990Z,18.16
2023-04-16T10:31:56.847Z,18.25
2023-04-16T10:32:58.302Z,18.18
2023-04-16T10:33:56.656Z,18.09
2023-04-16T10:34:56.558Z,18.07
2023-04-16T10:36:07.075Z,18.11
2023-04-16T10:36:56.327Z,18.25
2023-04-16T10:37:56.252Z,18.29
2023-04-16T10:38:56.130Z,18.42
2023-04-16T10:39:56.015Z,18.46
2023-04-16T10:40:55.911Z,18.42
2023-04-16T10:41:55.797Z,18.52
2023-04-16T10:42:55.692Z,18.50
2023-04-16T10:43:55.584Z,18.40
2023-04-16T10:44:55.496Z,18.43
2023-04-16T10:45:55.419Z,18.24
2023-04-16T10:46:55.313Z,18.32
2023-04-16T10:47:55.230Z,18.37
2023-04-16T10:48:55.090Z,18.43
2023-04-16T10:49:54.980Z,18.46
2023-04-16T10:50:54.894Z,18.43
2023-04-16T10:51:54.794Z,18.39
2023-04-16T10:52:54.710Z,18.43
2023-04-16T10:53:54.619Z,18.46
2023-04-16T10:54:54.507Z,18.28
2023-04-16T10:55:54.394Z,18.24
2023-04-16T10:56:54.296Z,18.31
2023-04-16T10:57:54.204Z,18.33
2023-04-16T10:58:54.112Z,18.16
2023-04-16T10:59:54.007Z,18.26
2023-04-16T11:00:53.921Z,18.08
2023-04-16T11:01:53.915Z,18.13
2023-04-16T11:02:53.785Z,17.94
2023-04-16T11:03:53.902Z,18.01
2023-04-16T11:04:53.565Z,18.02
2023-04-16T11:05:53.445Z,18.09
2023-04-16T11:06:53.385Z,18.13
2023-04-16T11:07:53.335Z,18.20
2023-04-16T11:08:55.284Z,18.15
2023-04-16T11:09:53.349Z,18.26
2023-04-16T11:10:53.090Z,18.26
2023-04-16T11:11:52.990Z,18.32
2023-04-16T11:12:52.895Z,18.25
2023-04-16T11:13:52.790Z,18.31
2023-04-16T11:14:52.688Z,18.31
2023-04-16T11:15:52.610Z,18.37
2023-04-16T11:16:52.510Z,18.39
2023-04-16T11:17:52.468Z,18.36
2023-04-16T11:18:52.466Z,18.32
2023-04-16T11:19:53.575Z,18.40
2023-04-16T11:20:52.181Z,18.46
2023-04-16T11:21:52.125Z,18.46
2023-04-16T11:22:52.094Z,18.47
2023-04-16T11:23:52.027Z,18.57
2023-04-16T11:24:51.978Z,18.07
2023-04-16T11:25:51.960Z,18.26
2023-04-16T11:26:51.873Z,18.39
2023-04-16T11:27:51.862Z,18.39
2023-04-16T11:28:51.767Z,18.50
2023-04-16T11:29:51.727Z,18.56
2023-04-16T11:30:51.653Z,18.62
2023-04-16T11:31:51.769Z,18.63
2023-04-16T11:32:51.577Z,18.67
2023-04-16T11:33:51.523Z,18.56
2023-04-16T11:34:51.465Z,18.29
2023-04-16T11:35:51.416Z,18.60
2023-04-16T11:36:51.446Z,18.62
2023-04-16T11:37:51.343Z,18.73
2023-04-16T11:38:51.296Z,18.75
2023-04-16T11:39:51.294Z,18.81
2023-04-16T11:40:51.203Z,18.87
2023-04-16T11:41:51.190Z,18.93
2023-04-16T11:42:51.131Z,18.97
2023-04-16T11:43:51.075Z,19.01
2023-04-16T11:44:51.028Z,19.05
2023-04-16T11:45:50.985Z,19.02
2023-04-16T11:46:50.998Z,19.12
2023-04-16T11:47:50.902Z,19.11
2023-04-16T11:48:50.850Z,18.98
2023-04-16T11:49:50.809Z,18.93
2023-04-16T11:50:50.845Z,18.98
2023-04-16T11:51:50.715Z,18.97
2023-04-16T11:52:50.658Z,19.05
2023-04-16T11:53:50.597Z,19.07
2023-04-16T11:54:50.547Z,19.14
2023-04-16T11:55:50.498Z,18.80
2023-04-16T11:56:50.450Z,18.98
2023-04-16T11:57:51.698Z,19.01
2023-04-16T11:58:50.288Z,19.02
2023-04-16T12:00:03.081Z,19.08
2023-04-16T12:00:50.063Z,18.77
2023-04-16T12:01:50.016Z,19.02
2023-04-16T12:02:50.084Z,19.09
2023-04-16T12:03:50.005Z,19.01
2023-04-16T12:04:49.677Z,19.01
2023-04-16T12:05:49.512Z,19.12
2023-04-16T12:06:49.380Z,18.81
2023-04-16T12:07:49.264Z,18.87
2023-04-16T12:08:49.146Z,18.99
2023-04-16T12:09:49.038Z,19.11
2023-04-16T12:10:48.914Z,19.05
2023-04-16T12:11:48.801Z,18.97
2023-04-16T12:12:48.689Z,19.09
2023-04-16T12:13:48.590Z,19.11
2023-04-16T12:14:48.443Z,19.16
2023-04-16T12:15:48.324Z,19.21
2023-04-16T12:16:48.342Z,19.14
2023-04-16T12:17:48.143Z,19.26
2023-04-16T12:18:47.987Z,19.25
2023-04-16T12:19:47.873Z,19.29
2023-04-16T12:20:47.753Z,19.26
2023-04-16T12:21:47.673Z,19.35
2023-04-16T12:22:47.540Z,19.30
2023-04-16T12:23:47.404Z,19.05
2023-04-16T12:24:47.295Z,19.14
2023-04-16T12:25:47.184Z,19.16
2023-04-16T12:26:47.072Z,19.16
2023-04-16T12:27:47.086Z,19.23
2023-04-16T12:28:46.861Z,19.27
2023-04-16T12:29:46.794Z,19.30
2023-04-16T12:30:46.718Z,19.21
2023-04-16T12:31:46.628Z,19.25
2023-04-16T12:32:46.624Z,19.36
2023-04-16T12:33:46.488Z,19.37
2023-04-16T12:34:49.220Z,19.32
2023-04-16T12:35:46.297Z,19.45
2023-04-16T12:36:46.267Z,18.95
2023-04-16T12:37:46.066Z,19.15
2023-04-16T12:38:45.936Z,19.30
2023-04-16T12:39:47.559Z,18.86
2023-04-16T12:40:45.688Z,19.08
2023-04-16T12:41:45.566Z,19.18
2023-04-16T12:42:45.446Z,19.01
2023-04-16T12:43:45.330Z,19.27
2023-04-16T12:44:45.196Z,19.30
2023-04-16T12:45:45.123Z,19.37
2023-04-16T12:46:44.966Z,19.46
2023-04-16T12:47:44.874Z,19.49
2023-04-16T12:48:44.722Z,19.42
2023-04-16T12:49:44.585Z,19.42
2023-04-16T12:50:44.627Z,19.30
2023-04-16T12:51:44.322Z,19.37
2023-04-16T12:52:44.202Z,19.37
2023-04-16T12:53:44.079Z,19.43